Capitol Logistics 575




WSSS
Changi International Airport
Singapore, SG
YSSY
Kingsford Smith International Airport
Sydney, AU

Route Details

Aircraft Information
Group: Trans-Pacific Ops
Types: B744,B763,MD11
Route Data
Demand: V
Distance: 3403nm
Duration: 7h 45m
Recm'd Route: VENI1E SURGA M635 ATMAP A576 PKS W440 HOGAN V599 WATLE W652 ODALE ODALE7
Origin Wx: WSSS 270530Z 16009KT 130V200 9999 SCT020 FEW022TCU BKN300 32/26 Q1008 NOSIG
Dest. Wx: YSSY 270530Z 05009KT 9999 FEW040 21/12 Q1015
Notes:

Financial History
Total Freight: 413,686lbs
Average Load: 137,895lbs/flt
Fuel Used: 524,603lbs
Avg. Fuel Used: 174,868lbs/flt
Fuel Expense: $418,366
Avg. Fuel Expense: $139,455
Avg. Fuel Cost: $0.82/lbs
Total Gross Income: $1,807,666
Pilot Pay: $707
Total Expenses: $205,023
Total Revenue: $1,180,916
Average Revenue: $602,555.23